createdAt,value
2023-01-19T00:01:46.586Z,23.65
2023-01-19T00:04:16.937Z,19.45
2023-01-19T00:06:45.946Z,17.80
2023-01-19T00:09:15.659Z,24.52
2023-01-19T00:11:44.660Z,21.73
2023-01-19T00:14:13.677Z,26.00
2023-01-19T00:16:42.699Z,23.40
2023-01-19T00:19:11.793Z,24.65
2023-01-19T00:21:42.216Z,28.65
2023-01-19T00:24:14.007Z,23.73
2023-01-19T00:26:43.191Z,22.05
2023-01-19T00:29:12.394Z,25.17
2023-01-19T00:31:41.795Z,25.63
2023-01-19T00:34:11.916Z,24.58
2023-01-19T00:36:42.831Z,32.97
2023-01-19T00:39:11.825Z,23.92
2023-01-19T00:41:58.108Z,22.08
2023-01-19T00:44:27.159Z,24.27
2023-01-19T00:46:56.161Z,25.80
2023-01-19T00:49:25.248Z,20.67
2023-01-19T00:51:55.754Z,26.50
2023-01-19T00:54:26.855Z,17.95
2023-01-19T00:56:56.410Z,25.73
2023-01-19T00:59:26.024Z,23.05
2023-01-19T01:01:55.247Z,22.63
2023-01-19T01:04:24.355Z,22.10
2023-01-19T01:06:53.470Z,21.50
2023-01-19T01:09:24.432Z,19.42
2023-01-19T01:11:53.376Z,19.58
2023-01-19T01:14:22.441Z,17.35
2023-01-19T01:16:51.562Z,20.02
2023-01-19T01:19:20.582Z,18.48
2023-01-19T01:21:49.759Z,16.20
2023-01-19T01:24:19.206Z,16.23
2023-01-19T01:26:50.184Z,20.40
2023-01-19T01:29:19.143Z,19.23
2023-01-19T01:31:48.125Z,20.58
2023-01-19T01:34:17.607Z,20.98
2023-01-19T01:36:46.792Z,19.77
2023-01-19T01:39:15.735Z,24.23
2023-01-19T01:41:44.818Z,20.38
2023-01-19T01:44:50.189Z,19.40
2023-01-19T01:47:27.259Z,25.35
2023-01-19T01:50:01.791Z,19.95
2023-01-19T01:52:34.464Z,21.35
2023-01-19T01:55:07.351Z,24.13
2023-01-19T01:57:40.631Z,25.25
2023-01-19T02:00:12.725Z,21.88
2023-01-19T02:02:55.152Z,23.65
2023-01-19T02:05:28.120Z,20.05
2023-01-19T02:08:18.523Z,22.25
2023-01-19T02:11:06.192Z,26.42
2023-01-19T02:13:38.383Z,24.23
2023-01-19T02:16:10.120Z,19.58
2023-01-19T02:18:39.830Z,25.42
2023-01-19T02:21:13.682Z,27.05
2023-01-19T02:23:46.456Z,21.42
2023-01-19T02:26:20.499Z,21.30
2023-01-19T02:28:53.495Z,28.90
2023-01-19T02:31:22.511Z,25.55
2023-01-19T02:33:51.987Z,22.13
2023-01-19T02:36:24.988Z,20.98
2023-01-19T02:38:58.044Z,22.77
2023-01-19T02:41:30.542Z,19.50
2023-01-19T02:44:00.570Z,22.35
2023-01-19T02:46:29.871Z,20.48
2023-01-19T02:49:00.490Z,20.35
2023-01-19T02:51:30.104Z,22.17
2023-01-19T02:54:20.306Z,19.38
2023-01-19T02:57:06.665Z,20.15
2023-01-19T02:59:51.495Z,20.52
2023-01-19T03:02:33.419Z,23.58
2023-01-19T03:05:17.579Z,21.08
2023-01-19T03:07:57.237Z,24.02
2023-01-19T03:10:35.890Z,15.32
2023-01-19T03:13:12.708Z,23.33
2023-01-19T03:15:48.871Z,22.50
2023-01-19T03:18:22.768Z,16.70
2023-01-19T03:20:54.893Z,18.13
2023-01-19T03:23:28.262Z,16.00
2023-01-19T03:26:01.293Z,15.70
2023-01-19T03:28:33.953Z,16.65
2023-01-19T03:31:08.335Z,17.63
2023-01-19T03:33:42.332Z,20.37
2023-01-19T03:36:17.694Z,17.23
2023-01-19T03:38:49.723Z,17.10
2023-01-19T03:41:23.149Z,16.85
2023-01-19T03:43:53.757Z,19.10
2023-01-19T03:46:23.878Z,17.00
2023-01-19T03:48:53.568Z,16.23
2023-01-19T03:51:23.467Z,17.85
2023-01-19T03:53:52.455Z,18.30
2023-01-19T03:56:24.633Z,17.38
2023-01-19T03:58:55.592Z,19.30
2023-01-19T04:01:25.911Z,16.30
2023-01-19T04:03:55.416Z,16.85
2023-01-19T04:06:24.643Z,17.55
2023-01-19T04:08:54.126Z,12.52
2023-01-19T04:11:24.637Z,14.80
2023-01-19T04:13:53.732Z,18.63
2023-01-19T04:16:23.590Z,21.05
2023-01-19T04:18:52.837Z,20.63
2023-01-19T04:21:21.802Z,17.10
2023-01-19T04:23:51.037Z,16.67
2023-01-19T04:26:20.028Z,13.23
2023-01-19T04:28:50.352Z,16.17
2023-01-19T04:31:20.703Z,14.52
2023-01-19T04:33:50.394Z,17.25
2023-01-19T04:36:19.468Z,18.25
2023-01-19T04:38:48.817Z,12.95
2023-01-19T04:41:18.503Z,16.35
2023-01-19T04:43:48.205Z,14.43
2023-01-19T04:46:18.592Z,15.70
2023-01-19T04:48:47.624Z,15.15
2023-01-19T04:51:16.542Z,15.70
2023-01-19T04:53:46.141Z,14.52
2023-01-19T04:56:15.202Z,13.93
2023-01-19T04:58:44.226Z,14.60
2023-01-19T05:01:13.269Z,18.10
2023-01-19T05:03:43.723Z,15.23
2023-01-19T05:06:12.906Z,18.33
2023-01-19T05:08:43.376Z,23.23
2023-01-19T05:11:13.525Z,11.95
2023-01-19T05:13:42.569Z,15.70
2023-01-19T05:16:12.348Z,16.50
2023-01-19T05:18:43.393Z,15.68
2023-01-19T05:21:12.311Z,24.55
2023-01-19T05:23:41.355Z,18.80
2023-01-19T05:26:10.549Z,16.48
2023-01-19T05:28:39.548Z,16.73
2023-01-19T05:31:08.871Z,20.80
2023-01-19T05:33:38.001Z,18.48
2023-01-19T05:36:08.708Z,19.83
2023-01-19T05:38:37.794Z,15.50
2023-01-19T05:41:07.182Z,20.08
2023-01-19T05:43:36.166Z,16.67
2023-01-19T05:46:05.846Z,18.75
2023-01-19T05:48:35.003Z,18.10
2023-01-19T05:51:05.208Z,24.55
2023-01-19T05:53:35.627Z,20.67
2023-01-19T05:56:06.519Z,21.52
2023-01-19T05:58:35.827Z,22.65
2023-01-19T06:01:06.108Z,24.15
2023-01-19T06:03:36.879Z,21.00
2023-01-19T06:06:06.163Z,24.52
2023-01-19T06:08:36.735Z,19.23
2023-01-19T06:11:07.764Z,20.10
2023-01-19T06:13:36.909Z,19.42
2023-01-19T06:16:06.203Z,19.88
2023-01-19T06:18:35.207Z,22.42
2023-01-19T06:21:07.950Z,20.30
2023-01-19T06:23:38.407Z,19.90
2023-01-19T06:26:07.733Z,20.92
2023-01-19T06:28:36.686Z,22.17
2023-01-19T06:31:05.750Z,18.33
2023-01-19T06:33:35.847Z,22.00
2023-01-19T06:36:05.458Z,18.83
2023-01-19T06:38:34.521Z,26.52
2023-01-19T06:41:04.953Z,21.20
2023-01-19T06:43:33.990Z,23.20
2023-01-19T06:46:04.148Z,25.30
2023-01-19T06:48:33.195Z,17.85
2023-01-19T06:51:02.182Z,21.23
2023-01-19T06:53:31.217Z,21.38
2023-01-19T06:56:01.607Z,25.17
2023-01-19T06:58:34.953Z,19.70
2023-01-19T07:01:04.715Z,23.02
2023-01-19T07:03:34.746Z,28.55
2023-01-19T07:06:04.527Z,19.85
2023-01-19T07:08:34.673Z,21.00
2023-01-19T07:11:26.403Z,23.70
2023-01-19T07:13:56.703Z,23.90
2023-01-19T07:16:26.303Z,23.48
2023-01-19T07:18:55.427Z,18.50
2023-01-19T07:21:24.760Z,24.95
2023-01-19T07:23:54.193Z,20.40
2023-01-19T07:26:25.237Z,26.40
2023-01-19T07:28:54.197Z,23.25
2023-01-19T07:31:24.682Z,24.02
2023-01-19T07:33:53.698Z,30.65
2023-01-19T07:36:22.795Z,24.73
2023-01-19T07:38:51.996Z,25.58
2023-01-19T07:41:21.077Z,25.92
2023-01-19T07:43:53.621Z,21.55
2023-01-19T07:46:22.713Z,22.27
2023-01-19T07:48:53.179Z,23.15
2023-01-19T07:51:22.266Z,28.67
2023-01-19T07:53:52.964Z,28.85
2023-01-19T07:56:22.661Z,22.63
2023-01-19T07:58:52.644Z,23.55
2023-01-19T08:01:21.771Z,24.88
2023-01-19T08:03:52.391Z,18.75
2023-01-19T08:06:23.443Z,30.75
2023-01-19T08:08:53.362Z,20.20
2023-01-19T08:11:22.467Z,21.35
2023-01-19T08:13:51.635Z,28.98
2023-01-19T08:16:20.616Z,25.65
2023-01-19T08:18:49.571Z,26.85
2023-01-19T08:21:20.342Z,28.48
2023-01-19T08:23:54.071Z,26.60
2023-01-19T08:26:27.668Z,22.75
2023-01-19T08:28:57.805Z,20.50
2023-01-19T08:31:27.210Z,26.98
2023-01-19T08:33:56.634Z,25.60
2023-01-19T08:36:27.622Z,28.58
2023-01-19T08:38:56.576Z,22.10
2023-01-19T08:41:25.491Z,22.77
2023-01-19T08:43:54.690Z,30.77
2023-01-19T08:46:23.946Z,24.25
2023-01-19T08:48:52.993Z,24.15
2023-01-19T08:51:22.580Z,26.50
2023-01-19T08:53:53.735Z,25.50
2023-01-19T08:56:22.643Z,29.38
2023-01-19T08:59:07.620Z,25.88
2023-01-19T09:01:38.336Z,23.52
2023-01-19T09:04:07.695Z,20.98
2023-01-19T09:06:36.809Z,25.08
2023-01-19T09:09:07.306Z,25.08
2023-01-19T09:11:36.341Z,20.45
2023-01-19T09:14:05.893Z,25.02
2023-01-19T09:16:34.925Z,23.13
2023-01-19T09:19:03.870Z,23.50
2023-01-19T09:21:32.984Z,23.90
2023-01-19T09:24:02.033Z,27.88
2023-01-19T09:26:33.274Z,19.77
2023-01-19T09:29:02.376Z,22.45
2023-01-19T09:31:31.465Z,22.80
2023-01-19T09:34:00.508Z,22.23
2023-01-19T09:36:30.328Z,25.40
2023-01-19T09:38:59.768Z,26.27
2023-01-19T09:41:29.016Z,22.55
2023-01-19T09:44:01.674Z,25.48
2023-01-19T09:46:39.002Z,26.63
2023-01-19T09:49:14.950Z,21.05
2023-01-19T09:51:48.301Z,25.40
2023-01-19T09:54:19.211Z,28.98
2023-01-19T09:56:52.684Z,23.50
2023-01-19T09:59:26.141Z,25.50
2023-01-19T10:02:14.514Z,28.38
2023-01-19T10:04:45.085Z,24.42
2023-01-19T10:07:25.293Z,25.27
2023-01-19T10:10:18.074Z,28.35
2023-01-19T10:12:59.096Z,30.13
2023-01-19T10:15:44.158Z,27.10
2023-01-19T10:18:20.208Z,27.98
2023-01-19T10:20:52.205Z,31.10
2023-01-19T10:23:37.881Z,26.52
2023-01-19T10:28:41.127Z,25.73
2023-01-19T10:31:12.885Z,31.98
2023-01-19T10:33:42.197Z,28.83
2023-01-19T10:36:18.985Z,23.40
2023-01-19T10:38:48.847Z,31.73
2023-01-19T10:41:22.429Z,26.98
2023-01-19T10:44:00.944Z,25.77
2023-01-19T10:46:38.329Z,29.95
2023-01-19T10:49:08.265Z,25.05
2023-01-19T10:51:49.075Z,26.33
2023-01-19T10:54:18.869Z,24.70
2023-01-19T10:56:54.744Z,33.00
2023-01-19T10:59:35.645Z,28.23
2023-01-19T11:02:18.626Z,24.63
2023-01-19T11:04:50.186Z,25.35
2023-01-19T11:07:22.988Z,29.05
2023-01-19T11:10:12.094Z,29.25
2023-01-19T11:12:43.554Z,27.95
2023-01-19T11:15:17.809Z,26.38
2023-01-19T11:17:48.848Z,27.77
2023-01-19T11:20:23.690Z,26.83
2023-01-19T11:23:06.588Z,31.98
2023-01-19T11:25:37.449Z,33.67
2023-01-19T11:28:06.975Z,32.88
2023-01-19T11:30:36.899Z,25.48
2023-01-19T11:33:08.197Z,28.23
2023-01-19T11:35:39.870Z,31.65
2023-01-19T11:38:18.307Z,29.10
2023-01-19T11:40:56.888Z,35.08
2023-01-19T11:43:39.809Z,25.35
2023-01-19T11:46:18.893Z,30.90
2023-01-19T11:48:56.830Z,26.85
2023-01-19T11:51:29.770Z,37.70
2023-01-19T11:53:59.614Z,30.55
2023-01-19T11:56:30.539Z,31.23
2023-01-19T11:58:59.694Z,33.53
2023-01-19T12:01:34.268Z,27.95
2023-01-19T12:04:13.307Z,28.65
2023-01-19T12:06:47.828Z,29.02
2023-01-19T12:09:21.515Z,30.05
2023-01-19T12:11:56.369Z,32.78
2023-01-19T12:14:30.287Z,34.10
2023-01-19T12:17:02.516Z,31.73
2023-01-19T12:19:41.360Z,27.27
2023-01-19T12:22:15.439Z,28.90
2023-01-19T12:24:55.003Z,40.70
2023-01-19T12:27:39.004Z,33.80
2023-01-19T12:30:18.407Z,30.27
2023-01-19T12:32:47.930Z,32.67
2023-01-19T12:35:53.585Z,29.17
2023-01-19T12:38:46.956Z,35.20
2023-01-19T12:41:21.595Z,29.88
2023-01-19T12:44:11.660Z,35.67
2023-01-19T12:46:43.586Z,32.40
2023-01-19T12:49:23.964Z,33.13
2023-01-19T12:51:55.232Z,33.22
2023-01-19T12:54:39.982Z,42.45
2023-01-19T12:57:17.079Z,31.35
2023-01-19T12:59:46.560Z,34.17
2023-01-19T13:02:51.855Z,31.02
2023-01-19T13:05:42.197Z,42.45
2023-01-19T13:08:21.985Z,34.05
2023-01-19T13:11:18.386Z,34.78
2023-01-19T13:14:27.954Z,33.67
2023-01-19T13:17:33.364Z,35.85
2023-01-19T13:20:20.704Z,34.05
2023-01-19T13:23:14.411Z,32.28
2023-01-19T13:25:49.127Z,36.05
2023-01-19T13:28:21.921Z,35.42
2023-01-19T13:30:58.467Z,40.38
2023-01-19T13:33:32.516Z,35.28
2023-01-19T13:36:02.051Z,35.40
2023-01-19T13:38:33.181Z,40.90
2023-01-19T13:41:04.902Z,30.67
2023-01-19T13:43:40.081Z,42.30
2023-01-19T13:46:13.049Z,29.52
2023-01-19T13:48:55.243Z,33.47
2023-01-19T13:51:25.058Z,30.60
2023-01-19T13:53:58.389Z,35.80
2023-01-19T13:56:28.842Z,30.90
2023-01-19T13:59:13.424Z,30.48
2023-01-19T14:01:46.356Z,35.80
2023-01-19T14:04:30.999Z,28.55
2023-01-19T14:07:03.583Z,27.65
2023-01-19T14:09:32.948Z,31.15
2023-01-19T14:12:17.708Z,30.50
2023-01-19T14:14:48.803Z,32.07
2023-01-19T14:17:26.698Z,26.65
2023-01-19T14:19:57.573Z,25.85
2023-01-19T14:22:41.792Z,32.45
2023-01-19T14:25:29.114Z,29.25
2023-01-19T14:28:40.864Z,36.28
2023-01-19T14:31:26.800Z,28.25
2023-01-19T14:33:58.923Z,33.05
2023-01-19T14:36:36.352Z,31.52
2023-01-19T14:39:07.511Z,24.30
2023-01-19T14:41:44.982Z,28.48
2023-01-19T14:44:23.106Z,28.33
2023-01-19T14:46:54.888Z,25.55
2023-01-19T14:49:35.893Z,24.88
2023-01-19T14:52:08.921Z,25.17
2023-01-19T14:54:42.173Z,26.95
2023-01-19T14:57:14.802Z,29.10
2023-01-19T14:59:48.668Z,23.20
2023-01-19T15:02:20.076Z,25.23
2023-01-19T15:04:52.263Z,25.05
2023-01-19T15:09:57.071Z,24.25
2023-01-19T15:12:30.813Z,20.60
2023-01-19T15:15:00.612Z,23.98
2023-01-19T15:17:32.439Z,21.23
2023-01-19T15:20:02.164Z,20.42
2023-01-19T15:22:32.667Z,23.05
2023-01-19T15:25:02.367Z,23.42
2023-01-19T15:27:32.423Z,23.50
2023-01-19T15:30:01.768Z,23.90
2023-01-19T15:32:34.697Z,25.08
2023-01-19T15:35:04.431Z,24.85
2023-01-19T15:37:34.033Z,20.73
2023-01-19T15:40:03.735Z,26.13
2023-01-19T15:42:34.772Z,24.58
2023-01-19T15:45:04.087Z,20.60
2023-01-19T15:47:35.257Z,21.02
2023-01-19T15:50:05.469Z,29.50
2023-01-19T15:52:37.673Z,22.00
2023-01-19T15:55:08.856Z,22.27
2023-01-19T15:57:39.001Z,24.55
2023-01-19T16:00:11.272Z,26.55
2023-01-19T16:02:52.451Z,23.75
2023-01-19T16:05:26.008Z,29.30
2023-01-19T16:08:01.892Z,26.85
2023-01-19T16:10:31.549Z,23.95
2023-01-19T16:13:02.368Z,21.80
2023-01-19T16:15:36.007Z,24.77
2023-01-19T16:18:17.797Z,25.35
2023-01-19T16:20:48.824Z,26.63
2023-01-19T16:23:34.043Z,26.45
2023-01-19T16:26:08.695Z,22.38
2023-01-19T16:28:41.865Z,32.33
2023-01-19T16:31:11.078Z,25.88
2023-01-19T16:33:45.788Z,26.95
2023-01-19T16:36:28.909Z,30.00
2023-01-19T16:39:01.179Z,34.35
2023-01-19T16:41:31.616Z,31.05
2023-01-19T16:44:03.693Z,33.70
2023-01-19T16:46:35.403Z,29.75
2023-01-19T16:49:08.087Z,31.35
2023-01-19T16:51:37.374Z,32.38
2023-01-19T16:54:07.252Z,30.88
2023-01-19T16:56:42.898Z,41.70
2023-01-19T16:59:15.845Z,36.95
2023-01-19T17:01:46.092Z,29.58
2023-01-19T17:04:32.502Z,29.75
2023-01-19T17:07:02.054Z,30.08
2023-01-19T17:09:34.324Z,31.23
2023-01-19T17:12:12.735Z,31.08
2023-01-19T17:14:43.251Z,34.80
2023-01-19T17:17:12.516Z,34.20
2023-01-19T17:19:45.314Z,34.53
2023-01-19T17:22:15.201Z,39.42
2023-01-19T17:24:45.242Z,40.58
2023-01-19T17:27:14.505Z,30.10
2023-01-19T17:29:43.682Z,32.20
2023-01-19T17:32:12.792Z,38.38
2023-01-19T17:34:43.332Z,33.47
2023-01-19T17:37:12.385Z,34.88
2023-01-19T17:39:41.604Z,34.20
2023-01-19T17:42:10.644Z,40.67
2023-01-19T17:44:39.609Z,37.63
2023-01-19T17:47:08.614Z,40.78
2023-01-19T17:49:37.733Z,38.05
2023-01-19T17:52:08.337Z,38.53
2023-01-19T17:54:52.215Z,40.35
2023-01-19T17:57:21.221Z,33.72
2023-01-19T17:59:50.313Z,33.95
2023-01-19T18:02:24.407Z,37.00
2023-01-19T18:04:53.822Z,46.38
2023-01-19T18:07:24.222Z,38.30
2023-01-19T18:09:56.064Z,44.35
2023-01-19T18:12:25.883Z,40.72
2023-01-19T18:15:10.940Z,34.58
2023-01-19T18:17:42.230Z,40.53
2023-01-19T18:20:13.104Z,38.50
2023-01-19T18:22:43.930Z,31.80
2023-01-19T18:25:12.986Z,42.28
2023-01-19T18:27:42.484Z,39.22
2023-01-19T18:30:12.843Z,40.25
2023-01-19T18:32:42.037Z,39.30
2023-01-19T18:35:13.809Z,42.53
2023-01-19T18:37:44.714Z,40.97
2023-01-19T18:40:14.652Z,46.78
2023-01-19T18:42:47.687Z,50.58
2023-01-19T18:45:35.443Z,36.72
2023-01-19T18:48:05.515Z,47.50
2023-01-19T18:50:34.710Z,47.72
2023-01-19T18:53:05.231Z,40.55
2023-01-19T18:55:34.373Z,46.58
2023-01-19T18:58:04.358Z,35.15
2023-01-19T19:00:33.408Z,37.95
2023-01-19T19:03:02.599Z,38.08
2023-01-19T19:05:31.654Z,42.97
2023-01-19T19:08:00.765Z,41.63
2023-01-19T19:10:31.558Z,44.40
2023-01-19T19:13:01.043Z,39.25
2023-01-19T19:15:30.458Z,45.33
2023-01-19T19:18:00.116Z,33.40
2023-01-19T19:20:29.119Z,44.58
2023-01-19T19:22:58.182Z,48.67
2023-01-19T19:25:27.173Z,36.63
2023-01-19T19:27:57.656Z,41.95
2023-01-19T19:30:26.684Z,43.83
2023-01-19T19:33:02.046Z,37.10
2023-01-19T19:35:31.150Z,43.88
2023-01-19T19:38:00.295Z,39.67
2023-01-19T19:40:30.308Z,41.40
2023-01-19T19:43:00.759Z,48.40
2023-01-19T19:45:30.574Z,42.83
2023-01-19T19:47:59.700Z,51.63
2023-01-19T19:50:28.849Z,50.78
2023-01-19T19:52:58.945Z,55.80
2023-01-19T19:55:28.179Z,51.67
2023-01-19T19:57:57.478Z,45.13
2023-01-19T20:00:27.964Z,49.05
2023-01-19T20:02:57.030Z,41.95
2023-01-19T20:05:26.367Z,41.47
2023-01-19T20:07:55.372Z,45.75
2023-01-19T20:10:25.972Z,38.20
2023-01-19T20:12:55.083Z,46.15
2023-01-19T20:15:24.030Z,40.00
2023-01-19T20:17:56.224Z,43.58
2023-01-19T20:20:25.353Z,49.70
2023-01-19T20:22:54.387Z,45.45
2023-01-19T20:25:23.435Z,39.10
2023-01-19T20:27:52.660Z,46.00
2023-01-19T20:30:22.449Z,36.90
2023-01-19T20:33:00.328Z,39.60
2023-01-19T20:35:29.420Z,45.40
2023-01-19T20:37:58.446Z,43.60
2023-01-19T20:40:27.454Z,43.13
2023-01-19T20:42:56.598Z,44.30
2023-01-19T20:45:26.385Z,39.40
2023-01-19T20:47:56.806Z,41.92
2023-01-19T20:50:25.791Z,45.28
2023-01-19T20:52:54.687Z,47.45
2023-01-19T20:55:23.726Z,48.25
2023-01-19T20:57:52.707Z,48.80
2023-01-19T21:00:22.207Z,41.95
2023-01-19T21:02:51.377Z,45.33
2023-01-19T21:05:21.963Z,47.17
2023-01-19T21:08:06.253Z,40.63
2023-01-19T21:10:37.794Z,44.90
2023-01-19T21:13:06.744Z,40.65
2023-01-19T21:15:35.870Z,37.45
2023-01-19T21:18:05.294Z,37.45
2023-01-19T21:20:35.686Z,42.00
2023-01-19T21:23:04.647Z,41.88
2023-01-19T21:25:33.852Z,37.28
2023-01-19T21:28:02.925Z,41.33
2023-01-19T21:30:31.899Z,44.10
2023-01-19T21:33:02.396Z,36.15
2023-01-19T21:35:31.412Z,41.00
2023-01-19T21:38:01.924Z,37.72
2023-01-19T21:40:31.091Z,43.45
2023-01-19T21:43:00.085Z,47.67
2023-01-19T21:45:29.135Z,42.97
2023-01-19T21:47:58.194Z,45.38
2023-01-19T21:50:27.171Z,45.78
2023-01-19T21:52:56.099Z,44.83
2023-01-19T21:55:26.563Z,44.92
2023-01-19T21:57:55.768Z,39.53
2023-01-19T22:00:25.037Z,42.00
2023-01-19T22:03:03.364Z,40.10
2023-01-19T22:05:36.973Z,45.05
2023-01-19T22:08:06.606Z,44.40
2023-01-19T22:10:38.652Z,42.17
2023-01-19T22:13:08.097Z,41.17
2023-01-19T22:15:37.318Z,45.10
2023-01-19T22:18:06.434Z,41.83
2023-01-19T22:20:35.406Z,44.25
2023-01-19T22:23:04.440Z,45.08
2023-01-19T22:25:34.440Z,44.55
2023-01-19T22:28:04.853Z,42.50
2023-01-19T22:30:33.898Z,41.22
2023-01-19T22:33:02.999Z,47.25
2023-01-19T22:35:32.434Z,44.58
2023-01-19T22:38:02.282Z,40.53
2023-01-19T22:40:31.943Z,45.95
2023-01-19T22:43:01.013Z,46.65
2023-01-19T22:45:31.401Z,37.08
2023-01-19T22:48:00.427Z,44.28
2023-01-19T22:50:29.346Z,41.45
2023-01-19T22:52:58.785Z,38.10
2023-01-19T22:55:30.580Z,48.60
2023-01-19T22:57:59.746Z,41.53
2023-01-19T23:00:28.703Z,40.47
2023-01-19T23:02:59.039Z,44.10
2023-01-19T23:05:28.515Z,37.50
2023-01-19T23:07:57.523Z,39.53
2023-01-19T23:10:26.544Z,40.22
2023-01-19T23:12:55.509Z,34.97
2023-01-19T23:15:24.534Z,46.50
2023-01-19T23:17:54.105Z,37.80
2023-01-19T23:20:24.559Z,41.88
2023-01-19T23:22:54.117Z,38.92
2023-01-19T23:25:23.225Z,37.38
2023-01-19T23:27:52.198Z,39.83
2023-01-19T23:30:21.359Z,36.40
2023-01-19T23:32:50.741Z,36.80
2023-01-19T23:35:19.752Z,33.63
2023-01-19T23:37:50.223Z,35.70
2023-01-19T23:40:19.587Z,36.35
2023-01-19T23:42:48.663Z,36.55
2023-01-19T23:45:17.702Z,38.03
2023-01-19T23:47:46.987Z,36.33
2023-01-19T23:50:15.945Z,34.08
2023-01-19T23:52:44.895Z,35.20
2023-01-19T23:55:16.833Z,36.70
2023-01-19T23:57:45.786Z,37.17
